sensor_id;sensor_type;location;lat;lon;timestamp;temperature;humidity
36186;DHT22;22228;53.222;7.446;2022-11-03T00:01:53;10.10;99.90
36186;DHT22;22228;53.222;7.446;2022-11-03T00:04:42;10.20;99.90
36186;DHT22;22228;53.222;7.446;2022-11-03T00:07:02;10.20;99.90
36186;DHT22;22228;53.222;7.446;2022-11-03T00:09:23;10.30;99.90
36186;DHT22;22228;53.222;7.446;2022-11-03T00:11:47;10.30;99.90
36186;DHT22;22228;53.222;7.446;2022-11-03T00:14:09;10.30;99.90
36186;DHT22;22228;53.222;7.446;2022-11-03T00:16:32;10.30;99.90
36186;DHT22;22228;53.222;7.446;2022-11-03T00:18:54;10.30;99.90
36186;DHT22;22228;53.222;7.446;2022-11-03T00:21:16;10.30;99.90
36186;DHT22;22228;53.222;7.446;2022-11-03T00:23:38;10.30;99.90
36186;DHT22;22228;53.222;7.446;2022-11-03T00:26:07;10.30;99.90
36186;DHT22;22228;53.222;7.446;2022-11-03T00:28:35;10.30;99.90
36186;DHT22;22228;53.222;7.446;2022-11-03T00:31:00;10.30;99.90
36186;DHT22;22228;53.222;7.446;2022-11-03T00:33:24;10.30;99.90
36186;DHT22;22228;53.222;7.446;2022-11-03T00:35:46;10.20;99.90
36186;DHT22;22228;53.222;7.446;2022-11-03T00:38:08;10.30;99.90
36186;DHT22;22228;53.222;7.446;2022-11-03T00:40:29;10.20;99.90
36186;DHT22;22228;53.222;7.446;2022-11-03T00:42:56;10.30;99.90
36186;DHT22;22228;53.222;7.446;2022-11-03T00:45:17;10.30;99.90
36186;DHT22;22228;53.222;7.446;2022-11-03T00:47:41;10.30;99.90
36186;DHT22;22228;53.222;7.446;2022-11-03T00:50:22;10.30;99.90
36186;DHT22;22228;53.222;7.446;2022-11-03T00:52:43;10.30;99.90
36186;DHT22;22228;53.222;7.446;2022-11-03T00:55:06;10.30;99.90
36186;DHT22;22228;53.222;7.446;2022-11-03T00:57:31;10.30;99.90
36186;DHT22;22228;53.222;7.446;2022-11-03T00:59:53;10.30;99.90
36186;DHT22;22228;53.222;7.446;2022-11-03T01:02:14;10.30;99.90
36186;DHT22;22228;53.222;7.446;2022-11-03T01:04:35;10.30;99.90
36186;DHT22;22228;53.222;7.446;2022-11-03T01:07:40;10.20;99.90
36186;DHT22;22228;53.222;7.446;2022-11-03T01:10:07;10.10;99.90
36186;DHT22;22228;53.222;7.446;2022-11-03T01:12:36;10.10;99.90
36186;DHT22;22228;53.222;7.446;2022-11-03T01:15:22;10.10;99.90
36186;DHT22;22228;53.222;7.446;2022-11-03T01:17:44;10.00;99.90
36186;DHT22;22228;53.222;7.446;2022-11-03T01:20:05;10.00;99.90
36186;DHT22;22228;53.222;7.446;2022-11-03T01:22:56;9.90;99.90
36186;DHT22;22228;53.222;7.446;2022-11-03T01:25:43;9.80;99.90
36186;DHT22;22228;53.222;7.446;2022-11-03T01:28:27;9.80;99.90
36186;DHT22;22228;53.222;7.446;2022-11-03T01:30:48;9.80;99.90
36186;DHT22;22228;53.222;7.446;2022-11-03T01:33:09;9.70;99.90
36186;DHT22;22228;53.222;7.446;2022-11-03T01:35:33;9.70;99.90
36186;DHT22;22228;53.222;7.446;2022-11-03T01:37:53;9.70;99.90
36186;DHT22;22228;53.222;7.446;2022-11-03T01:40:18;9.70;99.90
36186;DHT22;22228;53.222;7.446;2022-11-03T01:45:59;9.60;99.90
36186;DHT22;22228;53.222;7.446;2022-11-03T01:48:22;9.60;99.90
36186;DHT22;22228;53.222;7.446;2022-11-03T01:50:46;9.60;99.90
36186;DHT22;22228;53.222;7.446;2022-11-03T01:53:14;9.50;99.90
36186;DHT22;22228;53.222;7.446;2022-11-03T01:55:37;9.50;99.90
36186;DHT22;22228;53.222;7.446;2022-11-03T01:58:02;9.40;99.90
36186;DHT22;22228;53.222;7.446;2022-11-03T02:00:53;9.50;99.90
36186;DHT22;22228;53.222;7.446;2022-11-03T02:03:42;9.40;99.90
36186;DHT22;22228;53.222;7.446;2022-11-03T02:06:06;9.40;99.90
36186;DHT22;22228;53.222;7.446;2022-11-03T02:08:34;9.30;99.90
36186;DHT22;22228;53.222;7.446;2022-11-03T02:10:56;9.30;99.90
36186;DHT22;22228;53.222;7.446;2022-11-03T02:13:42;9.30;99.90
36186;DHT22;22228;53.222;7.446;2022-11-03T02:19:23;9.30;99.90
36186;DHT22;22228;53.222;7.446;2022-11-03T02:21:54;9.30;99.90
36186;DHT22;22228;53.222;7.446;2022-11-03T02:24:21;9.30;99.90
36186;DHT22;22228;53.222;7.446;2022-11-03T02:26:47;9.30;99.90
36186;DHT22;22228;53.222;7.446;2022-11-03T02:29:09;9.30;99.90
36186;DHT22;22228;53.222;7.446;2022-11-03T02:31:59;9.30;99.90
36186;DHT22;22228;53.222;7.446;2022-11-03T02:34:33;9.20;99.90
36186;DHT22;22228;53.222;7.446;2022-11-03T02:37:25;9.30;99.90
36186;DHT22;22228;53.222;7.446;2022-11-03T02:40:13;9.40;99.90
36186;DHT22;22228;53.222;7.446;2022-11-03T02:42:37;9.40;99.90
36186;DHT22;22228;53.222;7.446;2022-11-03T02:45:04;9.40;99.90
36186;DHT22;22228;53.222;7.446;2022-11-03T02:47:29;9.40;99.90
36186;DHT22;22228;53.222;7.446;2022-11-03T02:49:53;9.40;99.90
36186;DHT22;22228;53.222;7.446;2022-11-03T02:52:42;9.40;99.90
36186;DHT22;22228;53.222;7.446;2022-11-03T02:55:09;9.40;99.90
36186;DHT22;22228;53.222;7.446;2022-11-03T02:57:34;9.40;99.90
36186;DHT22;22228;53.222;7.446;2022-11-03T03:00:07;9.40;99.90
36186;DHT22;22228;53.222;7.446;2022-11-03T03:02:40;9.30;99.90
36186;DHT22;22228;53.222;7.446;2022-11-03T03:05:05;9.30;99.90
36186;DHT22;22228;53.222;7.446;2022-11-03T03:07:31;9.30;99.90
36186;DHT22;22228;53.222;7.446;2022-11-03T03:09:57;9.30;99.90
36186;DHT22;22228;53.222;7.446;2022-11-03T03:12:21;9.40;99.90
36186;DHT22;22228;53.222;7.446;2022-11-03T03:14:44;9.30;99.90
36186;DHT22;22228;53.222;7.446;2022-11-03T03:17:11;9.30;99.90
36186;DHT22;22228;53.222;7.446;2022-11-03T03:20:00;9.20;99.90
36186;DHT22;22228;53.222;7.446;2022-11-03T03:25:38;9.30;99.90
36186;DHT22;22228;53.222;7.446;2022-11-03T03:28:03;9.40;99.90
36186;DHT22;22228;53.222;7.446;2022-11-03T03:30:53;9.30;99.90
36186;DHT22;22228;53.222;7.446;2022-11-03T03:33:18;9.30;99.90
36186;DHT22;22228;53.222;7.446;2022-11-03T03:36:09;9.30;99.90
36186;DHT22;22228;53.222;7.446;2022-11-03T03:38:34;9.30;99.90
36186;DHT22;22228;53.222;7.446;2022-11-03T03:41:04;9.20;99.90
36186;DHT22;22228;53.222;7.446;2022-11-03T03:43:54;9.20;99.90
36186;DHT22;22228;53.222;7.446;2022-11-03T03:46:26;9.20;99.90
36186;DHT22;22228;53.222;7.446;2022-11-03T03:48:50;9.20;99.90
36186;DHT22;22228;53.222;7.446;2022-11-03T03:51:11;9.20;99.90
36186;DHT22;22228;53.222;7.446;2022-11-03T03:53:33;9.20;99.90
36186;DHT22;22228;53.222;7.446;2022-11-03T03:56:01;9.30;99.90
36186;DHT22;22228;53.222;7.446;2022-11-03T03:58:23;9.30;99.90
36186;DHT22;22228;53.222;7.446;2022-11-03T04:00:45;9.40;99.90
36186;DHT22;22228;53.222;7.446;2022-11-03T04:03:29;9.40;99.90
36186;DHT22;22228;53.222;7.446;2022-11-03T04:06:01;9.30;99.90
36186;DHT22;22228;53.222;7.446;2022-11-03T04:08:22;9.30;99.90
36186;DHT22;22228;53.222;7.446;2022-11-03T04:10:45;9.30;99.90
36186;DHT22;22228;53.222;7.446;2022-11-03T04:13:46;9.30;99.90
36186;DHT22;22228;53.222;7.446;2022-11-03T04:16:50;9.20;99.90
36186;DHT22;22228;53.222;7.446;2022-11-03T04:19:30;9.20;99.90
36186;DHT22;22228;53.222;7.446;2022-11-03T04:22:10;9.10;99.90
36186;DHT22;22228;53.222;7.446;2022-11-03T04:24:57;9.10;99.90
36186;DHT22;22228;53.222;7.446;2022-11-03T04:27:42;9.10;99.90
36186;DHT22;22228;53.222;7.446;2022-11-03T04:30:13;9.10;99.90
36186;DHT22;22228;53.222;7.446;2022-11-03T04:32:34;9.10;99.90
36186;DHT22;22228;53.222;7.446;2022-11-03T04:34:55;9.10;99.90
36186;DHT22;22228;53.222;7.446;2022-11-03T04:37:19;9.20;99.90
36186;DHT22;22228;53.222;7.446;2022-11-03T04:40:12;9.20;99.90
36186;DHT22;22228;53.222;7.446;2022-11-03T04:42:34;9.20;99.90
36186;DHT22;22228;53.222;7.446;2022-11-03T04:45:13;9.20;99.90
36186;DHT22;22228;53.222;7.446;2022-11-03T04:47:36;9.30;99.90
36186;DHT22;22228;53.222;7.446;2022-11-03T04:49:58;9.30;99.90
36186;DHT22;22228;53.222;7.446;2022-11-03T04:52:47;9.30;99.90
36186;DHT22;22228;53.222;7.446;2022-11-03T04:55:15;9.30;99.90
36186;DHT22;22228;53.222;7.446;2022-11-03T04:57:37;9.30;99.90
36186;DHT22;22228;53.222;7.446;2022-11-03T05:00:25;9.30;99.90
36186;DHT22;22228;53.222;7.446;2022-11-03T05:02:47;9.20;99.90
36186;DHT22;22228;53.222;7.446;2022-11-03T05:05:17;9.20;99.90
36186;DHT22;22228;53.222;7.446;2022-11-03T05:07:42;9.20;99.90
36186;DHT22;22228;53.222;7.446;2022-11-03T05:10:37;9.20;99.90
36186;DHT22;22228;53.222;7.446;2022-11-03T05:12:59;9.20;99.90
36186;DHT22;22228;53.222;7.446;2022-11-03T05:15:33;9.20;99.90
36186;DHT22;22228;53.222;7.446;2022-11-03T05:17:55;9.20;99.90
36186;DHT22;22228;53.222;7.446;2022-11-03T05:20:28;9.20;99.90
36186;DHT22;22228;53.222;7.446;2022-11-03T05:22:51;9.30;99.90
36186;DHT22;22228;53.222;7.446;2022-11-03T05:25:31;9.30;99.90
36186;DHT22;22228;53.222;7.446;2022-11-03T05:27:57;9.30;99.90
36186;DHT22;22228;53.222;7.446;2022-11-03T05:30:20;9.30;99.90
36186;DHT22;22228;53.222;7.446;2022-11-03T05:32:44;9.30;99.90
36186;DHT22;22228;53.222;7.446;2022-11-03T05:35:14;9.30;99.90
36186;DHT22;22228;53.222;7.446;2022-11-03T05:37:45;9.30;99.90
36186;DHT22;22228;53.222;7.446;2022-11-03T05:40:18;9.30;99.90
36186;DHT22;22228;53.222;7.446;2022-11-03T05:45:57;9.30;99.90
36186;DHT22;22228;53.222;7.446;2022-11-03T05:48:28;9.30;99.90
36186;DHT22;22228;53.222;7.446;2022-11-03T05:50:52;9.20;99.90
36186;DHT22;22228;53.222;7.446;2022-11-03T05:53:25;9.20;99.90
36186;DHT22;22228;53.222;7.446;2022-11-03T05:55:53;9.30;99.90
36186;DHT22;22228;53.222;7.446;2022-11-03T05:58:22;9.30;99.90
36186;DHT22;22228;53.222;7.446;2022-11-03T06:00:45;9.30;99.90
36186;DHT22;22228;53.222;7.446;2022-11-03T06:03:13;9.40;99.90
36186;DHT22;22228;53.222;7.446;2022-11-03T06:05:35;9.40;99.90
36186;DHT22;22228;53.222;7.446;2022-11-03T06:08:00;9.40;99.90
36186;DHT22;22228;53.222;7.446;2022-11-03T06:10:28;9.40;99.90
36186;DHT22;22228;53.222;7.446;2022-11-03T06:12:55;9.40;99.90
36186;DHT22;22228;53.222;7.446;2022-11-03T06:15:30;9.40;99.90
36186;DHT22;22228;53.222;7.446;2022-11-03T06:17:52;9.40;99.90
36186;DHT22;22228;53.222;7.446;2022-11-03T06:20:17;9.40;99.90
36186;DHT22;22228;53.222;7.446;2022-11-03T06:22:41;9.50;99.90
36186;DHT22;22228;53.222;7.446;2022-11-03T06:25:15;9.50;99.90
36186;DHT22;22228;53.222;7.446;2022-11-03T06:27:38;9.50;99.90
36186;DHT22;22228;53.222;7.446;2022-11-03T06:30:11;9.50;99.90
36186;DHT22;22228;53.222;7.446;2022-11-03T06:32:43;9.50;99.90
36186;DHT22;22228;53.222;7.446;2022-11-03T06:35:09;9.50;99.90
36186;DHT22;22228;53.222;7.446;2022-11-03T06:37:58;9.60;99.90
36186;DHT22;22228;53.222;7.446;2022-11-03T06:40:36;9.60;99.90
36186;DHT22;22228;53.222;7.446;2022-11-03T06:42:58;9.60;99.90
36186;DHT22;22228;53.222;7.446;2022-11-03T06:45:20;9.70;99.90
36186;DHT22;22228;53.222;7.446;2022-11-03T06:47:42;9.60;99.90
36186;DHT22;22228;53.222;7.446;2022-11-03T06:50:18;9.70;99.90
36186;DHT22;22228;53.222;7.446;2022-11-03T06:52:43;9.80;99.90
36186;DHT22;22228;53.222;7.446;2022-11-03T06:55:30;9.80;99.90
36186;DHT22;22228;53.222;7.446;2022-11-03T06:58:27;9.90;99.90
36186;DHT22;22228;53.222;7.446;2022-11-03T07:01:01;9.90;99.90
36186;DHT22;22228;53.222;7.446;2022-11-03T07:03:24;9.90;99.90
36186;DHT22;22228;53.222;7.446;2022-11-03T07:05:49;10.00;99.90
36186;DHT22;22228;53.222;7.446;2022-11-03T07:08:16;10.00;99.90
36186;DHT22;22228;53.222;7.446;2022-11-03T07:10:43;10.10;99.90
36186;DHT22;22228;53.222;7.446;2022-11-03T07:13:13;10.10;99.90
36186;DHT22;22228;53.222;7.446;2022-11-03T07:15:36;10.10;99.90
36186;DHT22;22228;53.222;7.446;2022-11-03T07:18:42;10.10;99.90
36186;DHT22;22228;53.222;7.446;2022-11-03T07:21:44;10.20;99.90
36186;DHT22;22228;53.222;7.446;2022-11-03T07:24:14;10.20;99.90
36186;DHT22;22228;53.222;7.446;2022-11-03T07:26:37;10.30;99.90
36186;DHT22;22228;53.222;7.446;2022-11-03T07:28:59;10.40;99.90
36186;DHT22;22228;53.222;7.446;2022-11-03T07:31:22;10.40;99.90
36186;DHT22;22228;53.222;7.446;2022-11-03T07:34:13;10.50;99.90
36186;DHT22;22228;53.222;7.446;2022-11-03T07:36:35;10.50;99.90
36186;DHT22;22228;53.222;7.446;2022-11-03T07:39:00;10.60;99.90
36186;DHT22;22228;53.222;7.446;2022-11-03T07:41:26;10.70;99.90
36186;DHT22;22228;53.222;7.446;2022-11-03T07:43:53;10.70;99.90
36186;DHT22;22228;53.222;7.446;2022-11-03T07:46:19;10.70;99.90
36186;DHT22;22228;53.222;7.446;2022-11-03T07:48:44;10.70;99.90
36186;DHT22;22228;53.222;7.446;2022-11-03T07:51:32;10.80;99.90
36186;DHT22;22228;53.222;7.446;2022-11-03T07:53:56;10.80;99.90
36186;DHT22;22228;53.222;7.446;2022-11-03T07:56:24;10.90;99.90
36186;DHT22;22228;53.222;7.446;2022-11-03T07:58:57;10.90;99.90
36186;DHT22;22228;53.222;7.446;2022-11-03T08:01:28;10.90;99.90
36186;DHT22;22228;53.222;7.446;2022-11-03T08:03:52;11.00;99.90
36186;DHT22;22228;53.222;7.446;2022-11-03T08:06:16;11.10;99.90
36186;DHT22;22228;53.222;7.446;2022-11-03T08:08:37;11.20;99.90
36186;DHT22;22228;53.222;7.446;2022-11-03T08:11:21;11.20;99.90
36186;DHT22;22228;53.222;7.446;2022-11-03T08:13:49;11.40;99.90
36186;DHT22;22228;53.222;7.446;2022-11-03T08:16:49;11.40;99.90
36186;DHT22;22228;53.222;7.446;2022-11-03T08:19:14;11.60;99.90
36186;DHT22;22228;53.222;7.446;2022-11-03T08:21:36;11.60;99.90
36186;DHT22;22228;53.222;7.446;2022-11-03T08:24:05;11.80;99.90
36186;DHT22;22228;53.222;7.446;2022-11-03T08:26:28;11.90;99.90
36186;DHT22;22228;53.222;7.446;2022-11-03T08:28:49;11.90;99.90
36186;DHT22;22228;53.222;7.446;2022-11-03T08:31:16;11.90;99.90
36186;DHT22;22228;53.222;7.446;2022-11-03T08:33:38;11.90;99.90
36186;DHT22;22228;53.222;7.446;2022-11-03T08:36:15;11.90;99.90
36186;DHT22;22228;53.222;7.446;2022-11-03T08:38:41;11.90;99.90
36186;DHT22;22228;53.222;7.446;2022-11-03T08:41:02;12.00;99.90
36186;DHT22;22228;53.222;7.446;2022-11-03T08:43:48;12.00;99.90
36186;DHT22;22228;53.222;7.446;2022-11-03T08:46:13;12.10;99.90
36186;DHT22;22228;53.222;7.446;2022-11-03T08:48:42;12.10;99.90
36186;DHT22;22228;53.222;7.446;2022-11-03T08:51:13;12.20;99.90
36186;DHT22;22228;53.222;7.446;2022-11-03T08:53:35;12.30;99.90
36186;DHT22;22228;53.222;7.446;2022-11-03T08:56:06;12.40;99.90
36186;DHT22;22228;53.222;7.446;2022-11-03T08:58:27;12.40;99.90
36186;DHT22;22228;53.222;7.446;2022-11-03T09:00:55;12.50;99.90
36186;DHT22;22228;53.222;7.446;2022-11-03T09:03:18;12.50;99.90
36186;DHT22;22228;53.222;7.446;2022-11-03T09:05:41;12.60;99.90
36186;DHT22;22228;53.222;7.446;2022-11-03T09:08:03;12.60;99.90
36186;DHT22;22228;53.222;7.446;2022-11-03T09:10:24;12.60;99.90
36186;DHT22;22228;53.222;7.446;2022-11-03T09:13:10;12.70;99.90
36186;DHT22;22228;53.222;7.446;2022-11-03T09:15:36;12.70;99.90
36186;DHT22;22228;53.222;7.446;2022-11-03T09:17:58;12.80;99.90
36186;DHT22;22228;53.222;7.446;2022-11-03T09:20:23;12.90;99.90
36186;DHT22;22228;53.222;7.446;2022-11-03T09:22:52;12.90;99.90
36186;DHT22;22228;53.222;7.446;2022-11-03T09:25:37;13.00;99.90
36186;DHT22;22228;53.222;7.446;2022-11-03T09:28:02;13.10;99.90
36186;DHT22;22228;53.222;7.446;2022-11-03T09:30:25;13.20;99.90
36186;DHT22;22228;53.222;7.446;2022-11-03T09:32:46;13.30;99.90
36186;DHT22;22228;53.222;7.446;2022-11-03T09:35:33;13.30;99.90
36186;DHT22;22228;53.222;7.446;2022-11-03T09:37:56;13.40;99.90
36186;DHT22;22228;53.222;7.446;2022-11-03T09:40:22;13.50;99.90
36186;DHT22;22228;53.222;7.446;2022-11-03T09:42:43;13.50;99.90
36186;DHT22;22228;53.222;7.446;2022-11-03T09:45:08;13.60;99.90
36186;DHT22;22228;53.222;7.446;2022-11-03T09:47:57;13.70;99.90
36186;DHT22;22228;53.222;7.446;2022-11-03T09:50:20;13.80;99.90
36186;DHT22;22228;53.222;7.446;2022-11-03T09:52:43;13.80;99.90
36186;DHT22;22228;53.222;7.446;2022-11-03T09:55:12;13.80;99.90
36186;DHT22;22228;53.222;7.446;2022-11-03T09:57:37;13.80;99.90
36186;DHT22;22228;53.222;7.446;2022-11-03T09:59:59;13.90;99.90
36186;DHT22;22228;53.222;7.446;2022-11-03T10:02:30;13.90;99.90
36186;DHT22;22228;53.222;7.446;2022-11-03T10:05:21;14.00;99.90
36186;DHT22;22228;53.222;7.446;2022-11-03T10:08:17;14.00;99.90
36186;DHT22;22228;53.222;7.446;2022-11-03T10:10:45;14.00;99.90
36186;DHT22;22228;53.222;7.446;2022-11-03T10:13:06;14.10;99.90
36186;DHT22;22228;53.222;7.446;2022-11-03T10:15:38;14.10;99.90
36186;DHT22;22228;53.222;7.446;2022-11-03T10:18:01;14.10;99.90
36186;DHT22;22228;53.222;7.446;2022-11-03T10:20:23;14.10;99.90
36186;DHT22;22228;53.222;7.446;2022-11-03T10:22:46;14.20;99.90
36186;DHT22;22228;53.222;7.446;2022-11-03T10:25:28;14.20;99.90
36186;DHT22;22228;53.222;7.446;2022-11-03T10:28:17;14.30;99.90
36186;DHT22;22228;53.222;7.446;2022-11-03T10:30:54;14.50;99.90
36186;DHT22;22228;53.222;7.446;2022-11-03T10:33:27;14.70;99.90
36186;DHT22;22228;53.222;7.446;2022-11-03T10:36:25;14.80;99.90
36186;DHT22;22228;53.222;7.446;2022-11-03T10:38:49;14.90;99.90
36186;DHT22;22228;53.222;7.446;2022-11-03T10:41:17;15.00;99.90
36186;DHT22;22228;53.222;7.446;2022-11-03T10:43:42;15.10;99.90
36186;DHT22;22228;53.222;7.446;2022-11-03T10:46:17;15.20;99.90
36186;DHT22;22228;53.222;7.446;2022-11-03T10:48:39;15.20;99.90
36186;DHT22;22228;53.222;7.446;2022-11-03T10:51:01;15.20;99.90
36186;DHT22;22228;53.222;7.446;2022-11-03T10:53:29;15.20;99.90
36186;DHT22;22228;53.222;7.446;2022-11-03T10:55:50;15.10;99.90
36186;DHT22;22228;53.222;7.446;2022-11-03T10:58:14;15.10;99.90
36186;DHT22;22228;53.222;7.446;2022-11-03T11:00:39;15.00;99.90
36186;DHT22;22228;53.222;7.446;2022-11-03T11:03:00;15.10;99.90
36186;DHT22;22228;53.222;7.446;2022-11-03T11:05:27;15.00;99.90
36186;DHT22;22228;53.222;7.446;2022-11-03T11:07:51;15.10;99.90
36186;DHT22;22228;53.222;7.446;2022-11-03T11:10:14;15.10;99.90
36186;DHT22;22228;53.222;7.446;2022-11-03T11:12:36;15.10;99.90
36186;DHT22;22228;53.222;7.446;2022-11-03T11:14:59;15.00;99.90
36186;DHT22;22228;53.222;7.446;2022-11-03T11:17:45;15.00;99.90
36186;DHT22;22228;53.222;7.446;2022-11-03T11:20:29;14.90;99.90
36186;DHT22;22228;53.222;7.446;2022-11-03T11:44:53;14.80;99.90
36186;DHT22;22228;53.222;7.446;2022-11-03T11:47:42;14.80;99.90
36186;DHT22;22228;53.222;7.446;2022-11-03T11:50:28;14.80;99.90
36186;DHT22;22228;53.222;7.446;2022-11-03T11:52:55;14.80;99.90
36186;DHT22;22228;53.222;7.446;2022-11-03T11:55:18;14.80;99.90
36186;DHT22;22228;53.222;7.446;2022-11-03T11:57:44;14.80;99.90
36186;DHT22;22228;53.222;7.446;2022-11-03T12:00:17;14.80;99.90
36186;DHT22;22228;53.222;7.446;2022-11-03T12:02:45;14.90;99.90
36186;DHT22;22228;53.222;7.446;2022-11-03T12:05:18;14.90;99.90
36186;DHT22;22228;53.222;7.446;2022-11-03T12:07:47;14.90;99.90
36186;DHT22;22228;53.222;7.446;2022-11-03T12:10:10;15.00;99.90
36186;DHT22;22228;53.222;7.446;2022-11-03T12:12:34;15.00;99.90
36186;DHT22;22228;53.222;7.446;2022-11-03T12:14:55;15.10;99.90
36186;DHT22;22228;53.222;7.446;2022-11-03T12:17:32;15.10;99.90
36186;DHT22;22228;53.222;7.446;2022-11-03T12:20:34;15.10;99.90
36186;DHT22;22228;53.222;7.446;2022-11-03T12:23:05;15.10;99.90
36186;DHT22;22228;53.222;7.446;2022-11-03T12:25:34;15.10;99.90
36186;DHT22;22228;53.222;7.446;2022-11-03T12:27:56;15.00;99.90
36186;DHT22;22228;53.222;7.446;2022-11-03T12:30:18;15.00;99.90
36186;DHT22;22228;53.222;7.446;2022-11-03T12:32:41;14.90;99.90
36186;DHT22;22228;53.222;7.446;2022-11-03T12:35:02;14.90;99.90
36186;DHT22;22228;53.222;7.446;2022-11-03T12:37:24;14.90;99.90
36186;DHT22;22228;53.222;7.446;2022-11-03T12:39:46;14.90;99.90
36186;DHT22;22228;53.222;7.446;2022-11-03T12:42:07;14.90;99.90
36186;DHT22;22228;53.222;7.446;2022-11-03T12:44:32;14.90;99.90
36186;DHT22;22228;53.222;7.446;2022-11-03T12:46:54;14.90;99.90
36186;DHT22;22228;53.222;7.446;2022-11-03T12:49:14;14.90;99.90
36186;DHT22;22228;53.222;7.446;2022-11-03T12:51:36;14.90;99.90
36186;DHT22;22228;53.222;7.446;2022-11-03T12:54:23;15.00;99.90
36186;DHT22;22228;53.222;7.446;2022-11-03T12:56:47;15.00;99.90
36186;DHT22;22228;53.222;7.446;2022-11-03T12:59:10;15.00;99.90
36186;DHT22;22228;53.222;7.446;2022-11-03T13:01:30;15.00;99.90
36186;DHT22;22228;53.222;7.446;2022-11-03T13:03:51;15.00;99.90
36186;DHT22;22228;53.222;7.446;2022-11-03T13:06:18;15.00;99.90
36186;DHT22;22228;53.222;7.446;2022-11-03T13:08:47;15.00;99.90
36186;DHT22;22228;53.222;7.446;2022-11-03T13:11:11;15.00;99.90
36186;DHT22;22228;53.222;7.446;2022-11-03T13:13:49;14.90;99.90
36186;DHT22;22228;53.222;7.446;2022-11-03T13:16:40;14.90;99.90
36186;DHT22;22228;53.222;7.446;2022-11-03T13:19:01;14.90;99.90
36186;DHT22;22228;53.222;7.446;2022-11-03T13:21:23;14.90;99.90
36186;DHT22;22228;53.222;7.446;2022-11-03T13:23:45;14.80;99.90
36186;DHT22;22228;53.222;7.446;2022-11-03T13:26:36;14.80;99.90
36186;DHT22;22228;53.222;7.446;2022-11-03T13:28:59;14.70;99.90
36186;DHT22;22228;53.222;7.446;2022-11-03T13:31:22;14.70;99.90
36186;DHT22;22228;53.222;7.446;2022-11-03T13:33:45;14.60;99.90
36186;DHT22;22228;53.222;7.446;2022-11-03T13:36:07;14.60;99.90
36186;DHT22;22228;53.222;7.446;2022-11-03T13:38:30;14.50;99.90
36186;DHT22;22228;53.222;7.446;2022-11-03T13:40:57;14.40;99.90
36186;DHT22;22228;53.222;7.446;2022-11-03T13:43:19;14.40;99.90
36186;DHT22;22228;53.222;7.446;2022-11-03T13:45:48;14.40;99.90
36186;DHT22;22228;53.222;7.446;2022-11-03T13:48:10;14.40;99.90
36186;DHT22;22228;53.222;7.446;2022-11-03T13:50:58;14.50;99.90
36186;DHT22;22228;53.222;7.446;2022-11-03T13:53:43;14.50;99.90
36186;DHT22;22228;53.222;7.446;2022-11-03T13:56:09;14.40;99.90
36186;DHT22;22228;53.222;7.446;2022-11-03T13:58:31;14.50;99.90
36186;DHT22;22228;53.222;7.446;2022-11-03T14:00:53;14.40;99.90
36186;DHT22;22228;53.222;7.446;2022-11-03T14:03:18;14.40;99.90
36186;DHT22;22228;53.222;7.446;2022-11-03T14:05:39;14.30;99.90
36186;DHT22;22228;53.222;7.446;2022-11-03T14:08:00;14.30;99.90
36186;DHT22;22228;53.222;7.446;2022-11-03T14:10:21;14.20;99.90
36186;DHT22;22228;53.222;7.446;2022-11-03T14:12:42;14.20;99.90
36186;DHT22;22228;53.222;7.446;2022-11-03T14:15:05;14.10;99.90
36186;DHT22;22228;53.222;7.446;2022-11-03T14:17:28;14.10;99.90
36186;DHT22;22228;53.222;7.446;2022-11-03T14:20:16;14.10;99.90
36186;DHT22;22228;53.222;7.446;2022-11-03T14:22:40;14.00;99.90
36186;DHT22;22228;53.222;7.446;2022-11-03T14:25:03;14.00;99.90
36186;DHT22;22228;53.222;7.446;2022-11-03T14:27:24;13.90;99.90
36186;DHT22;22228;53.222;7.446;2022-11-03T14:29:48;13.90;99.90
36186;DHT22;22228;53.222;7.446;2022-11-03T14:32:10;14.00;99.90
36186;DHT22;22228;53.222;7.446;2022-11-03T14:35:05;14.00;99.90
36186;DHT22;22228;53.222;7.446;2022-11-03T14:37:28;14.00;99.90
36186;DHT22;22228;53.222;7.446;2022-11-03T14:39:51;14.00;99.90
36186;DHT22;22228;53.222;7.446;2022-11-03T14:42:13;13.90;99.90
36186;DHT22;22228;53.222;7.446;2022-11-03T14:44:35;13.90;99.90
36186;DHT22;22228;53.222;7.446;2022-11-03T14:46:58;13.80;99.90
36186;DHT22;22228;53.222;7.446;2022-11-03T14:49:21;13.80;99.90
36186;DHT22;22228;53.222;7.446;2022-11-03T14:51:44;13.70;99.90
36186;DHT22;22228;53.222;7.446;2022-11-03T14:54:12;13.70;99.90
36186;DHT22;22228;53.222;7.446;2022-11-03T14:56:37;13.60;99.90
36186;DHT22;22228;53.222;7.446;2022-11-03T14:58:58;13.60;99.90
36186;DHT22;22228;53.222;7.446;2022-11-03T15:01:19;13.60;99.90
36186;DHT22;22228;53.222;7.446;2022-11-03T15:03:40;13.60;99.90
36186;DHT22;22228;53.222;7.446;2022-11-03T15:06:33;13.60;99.90
36186;DHT22;22228;53.222;7.446;2022-11-03T15:08:55;13.60;99.90
36186;DHT22;22228;53.222;7.446;2022-11-03T15:11:18;13.50;99.90
36186;DHT22;22228;53.222;7.446;2022-11-03T15:14:11;13.50;99.90
36186;DHT22;22228;53.222;7.446;2022-11-03T15:16:34;13.40;99.90
36186;DHT22;22228;53.222;7.446;2022-11-03T15:19:20;13.40;99.90
36186;DHT22;22228;53.222;7.446;2022-11-03T15:21:46;13.40;99.90
36186;DHT22;22228;53.222;7.446;2022-11-03T15:24:08;13.40;99.90
36186;DHT22;22228;53.222;7.446;2022-11-03T15:26:38;13.40;99.90
36186;DHT22;22228;53.222;7.446;2022-11-03T15:28:59;13.40;99.90
36186;DHT22;22228;53.222;7.446;2022-11-03T15:34:39;13.20;99.90
36186;DHT22;22228;53.222;7.446;2022-11-03T15:37:00;13.20;99.90
36186;DHT22;22228;53.222;7.446;2022-11-03T15:39:47;13.10;99.90
36186;DHT22;22228;53.222;7.446;2022-11-03T15:42:14;13.00;99.90
36186;DHT22;22228;53.222;7.446;2022-11-03T15:44:36;13.00;99.90
36186;DHT22;22228;53.222;7.446;2022-11-03T15:46:58;13.00;99.90
36186;DHT22;22228;53.222;7.446;2022-11-03T15:49:21;13.00;99.90
36186;DHT22;22228;53.222;7.446;2022-11-03T15:51:43;13.00;99.90
36186;DHT22;22228;53.222;7.446;2022-11-03T15:54:04;13.00;99.90
36186;DHT22;22228;53.222;7.446;2022-11-03T15:56:29;13.00;99.90
36186;DHT22;22228;53.222;7.446;2022-11-03T15:59:15;13.00;99.90
36186;DHT22;22228;53.222;7.446;2022-11-03T16:01:37;12.90;99.90
36186;DHT22;22228;53.222;7.446;2022-11-03T16:03:59;12.90;99.90
36186;DHT22;22228;53.222;7.446;2022-11-03T16:06:47;12.90;99.90
36186;DHT22;22228;53.222;7.446;2022-11-03T16:09:09;12.90;99.90
36186;DHT22;22228;53.222;7.446;2022-11-03T16:11:34;12.80;99.90
36186;DHT22;22228;53.222;7.446;2022-11-03T16:13:55;12.80;99.90
36186;DHT22;22228;53.222;7.446;2022-11-03T16:16:18;12.80;99.90
36186;DHT22;22228;53.222;7.446;2022-11-03T16:18:40;12.80;99.90
36186;DHT22;22228;53.222;7.446;2022-11-03T16:21:26;12.80;99.90
36186;DHT22;22228;53.222;7.446;2022-11-03T16:23:55;12.70;99.90
36186;DHT22;22228;53.222;7.446;2022-11-03T16:26:16;12.70;99.90